sensor_id;sensor_type;location;lat;lon;timestamp;temperature;humidity
15554;DHT22;7878;44.632;10.942;2023-04-24T00:01:16;19.10;69.80
15554;DHT22;7878;44.632;10.942;2023-04-24T00:03:42;19.10;70.30
15554;DHT22;7878;44.632;10.942;2023-04-24T00:06:08;19.10;70.10
15554;DHT22;7878;44.632;10.942;2023-04-24T00:08:35;19.10;69.90
15554;DHT22;7878;44.632;10.942;2023-04-24T00:11:01;19.00;70.20
15554;DHT22;7878;44.632;10.942;2023-04-24T00:13:27;18.90;70.30
15554;DHT22;7878;44.632;10.942;2023-04-24T00:15:54;18.90;70.50
15554;DHT22;7878;44.632;10.942;2023-04-24T00:18:20;18.90;70.50
15554;DHT22;7878;44.632;10.942;2023-04-24T00:20:46;18.90;70.40
15554;DHT22;7878;44.632;10.942;2023-04-24T00:23:12;18.80;70.10
15554;DHT22;7878;44.632;10.942;2023-04-24T00:25:38;18.80;70.20
15554;DHT22;7878;44.632;10.942;2023-04-24T00:28:03;18.80;70.30
15554;DHT22;7878;44.632;10.942;2023-04-24T00:30:29;18.70;69.90
15554;DHT22;7878;44.632;10.942;2023-04-24T00:32:55;18.60;70.00
15554;DHT22;7878;44.632;10.942;2023-04-24T00:35:21;18.50;70.10
15554;DHT22;7878;44.632;10.942;2023-04-24T00:37:46;18.50;70.30
15554;DHT22;7878;44.632;10.942;2023-04-24T00:40:12;18.50;70.10
15554;DHT22;7878;44.632;10.942;2023-04-24T00:42:40;18.60;70.50
15554;DHT22;7878;44.632;10.942;2023-04-24T00:45:06;18.60;70.50
15554;DHT22;7878;44.632;10.942;2023-04-24T00:47:33;18.60;70.30
15554;DHT22;7878;44.632;10.942;2023-04-24T00:50:04;18.50;70.60
15554;DHT22;7878;44.632;10.942;2023-04-24T00:52:31;18.50;70.80
15554;DHT22;7878;44.632;10.942;2023-04-24T00:54:58;18.50;71.00
15554;DHT22;7878;44.632;10.942;2023-04-24T00:57:24;18.60;71.10
15554;DHT22;7878;44.632;10.942;2023-04-24T00:59:51;18.60;71.00
15554;DHT22;7878;44.632;10.942;2023-04-24T01:02:17;18.60;71.00
15554;DHT22;7878;44.632;10.942;2023-04-24T01:04:44;18.60;71.20
15554;DHT22;7878;44.632;10.942;2023-04-24T01:07:09;18.60;71.30
15554;DHT22;7878;44.632;10.942;2023-04-24T01:09:44;18.60;71.50
15554;DHT22;7878;44.632;10.942;2023-04-24T01:12:12;18.70;71.70
15554;DHT22;7878;44.632;10.942;2023-04-24T01:14:38;18.60;71.70
15554;DHT22;7878;44.632;10.942;2023-04-24T01:17:03;18.70;72.00
15554;DHT22;7878;44.632;10.942;2023-04-24T01:19:29;18.70;71.90
15554;DHT22;7878;44.632;10.942;2023-04-24T01:21:58;18.70;72.30
15554;DHT22;7878;44.632;10.942;2023-04-24T01:24:24;18.70;73.70
15554;DHT22;7878;44.632;10.942;2023-04-24T01:26:49;18.70;73.70
15554;DHT22;7878;44.632;10.942;2023-04-24T01:29:15;18.70;74.10
15554;DHT22;7878;44.632;10.942;2023-04-24T01:31:41;18.70;74.50
15554;DHT22;7878;44.632;10.942;2023-04-24T01:34:07;18.70;75.30
15554;DHT22;7878;44.632;10.942;2023-04-24T01:36:35;18.70;75.70
15554;DHT22;7878;44.632;10.942;2023-04-24T01:39:01;18.70;76.20
15554;DHT22;7878;44.632;10.942;2023-04-24T01:41:26;18.70;76.10
15554;DHT22;7878;44.632;10.942;2023-04-24T01:43:53;18.60;77.40
15554;DHT22;7878;44.632;10.942;2023-04-24T01:46:20;18.50;77.50
15554;DHT22;7878;44.632;10.942;2023-04-24T01:48:46;18.40;79.30
15554;DHT22;7878;44.632;10.942;2023-04-24T01:51:12;18.40;80.00
15554;DHT22;7878;44.632;10.942;2023-04-24T01:53:37;18.30;80.50
15554;DHT22;7878;44.632;10.942;2023-04-24T01:56:03;18.30;80.20
15554;DHT22;7878;44.632;10.942;2023-04-24T01:58:29;18.20;80.70
15554;DHT22;7878;44.632;10.942;2023-04-24T02:00:59;18.30;80.40
15554;DHT22;7878;44.632;10.942;2023-04-24T02:03:26;18.30;81.50
15554;DHT22;7878;44.632;10.942;2023-04-24T02:05:51;18.30;81.50
15554;DHT22;7878;44.632;10.942;2023-04-24T02:08:17;18.30;81.60
15554;DHT22;7878;44.632;10.942;2023-04-24T02:10:43;18.30;81.70
15554;DHT22;7878;44.632;10.942;2023-04-24T02:13:09;18.30;82.20
15554;DHT22;7878;44.632;10.942;2023-04-24T02:15:35;18.20;83.00
15554;DHT22;7878;44.632;10.942;2023-04-24T02:18:01;18.20;83.20
15554;DHT22;7878;44.632;10.942;2023-04-24T02:20:27;18.30;82.80
15554;DHT22;7878;44.632;10.942;2023-04-24T02:22:53;18.20;82.90
15554;DHT22;7878;44.632;10.942;2023-04-24T02:25:19;18.20;83.00
15554;DHT22;7878;44.632;10.942;2023-04-24T02:27:44;18.20;82.80
15554;DHT22;7878;44.632;10.942;2023-04-24T02:30:10;18.20;83.50
15554;DHT22;7878;44.632;10.942;2023-04-24T02:32:36;18.20;85.20
15554;DHT22;7878;44.632;10.942;2023-04-24T02:35:01;18.20;85.20
15554;DHT22;7878;44.632;10.942;2023-04-24T02:37:27;18.20;84.40
15554;DHT22;7878;44.632;10.942;2023-04-24T02:39:53;18.20;83.50
15554;DHT22;7878;44.632;10.942;2023-04-24T02:42:18;18.20;83.80
15554;DHT22;7878;44.632;10.942;2023-04-24T02:44:44;18.20;84.80
15554;DHT22;7878;44.632;10.942;2023-04-24T02:47:09;18.20;84.20
15554;DHT22;7878;44.632;10.942;2023-04-24T02:49:35;18.20;84.80
15554;DHT22;7878;44.632;10.942;2023-04-24T02:52:01;18.20;84.80
15554;DHT22;7878;44.632;10.942;2023-04-24T02:54:26;18.20;85.60
15554;DHT22;7878;44.632;10.942;2023-04-24T02:56:52;18.20;85.70
15554;DHT22;7878;44.632;10.942;2023-04-24T02:59:18;18.20;86.10
15554;DHT22;7878;44.632;10.942;2023-04-24T03:01:43;18.20;86.50
15554;DHT22;7878;44.632;10.942;2023-04-24T03:04:09;18.20;87.00
15554;DHT22;7878;44.632;10.942;2023-04-24T03:06:35;18.20;87.20
15554;DHT22;7878;44.632;10.942;2023-04-24T03:09:01;18.30;86.00
15554;DHT22;7878;44.632;10.942;2023-04-24T03:11:27;18.20;86.20
15554;DHT22;7878;44.632;10.942;2023-04-24T03:13:52;18.10;86.70
15554;DHT22;7878;44.632;10.942;2023-04-24T03:16:18;18.10;87.20
15554;DHT22;7878;44.632;10.942;2023-04-24T03:18:44;18.00;88.00
15554;DHT22;7878;44.632;10.942;2023-04-24T03:21:09;18.00;88.10
15554;DHT22;7878;44.632;10.942;2023-04-24T03:23:35;18.00;88.50
15554;DHT22;7878;44.632;10.942;2023-04-24T03:26:01;17.90;89.20
15554;DHT22;7878;44.632;10.942;2023-04-24T03:28:27;17.90;89.10
15554;DHT22;7878;44.632;10.942;2023-04-24T03:30:53;17.90;89.70
15554;DHT22;7878;44.632;10.942;2023-04-24T03:33:18;17.90;89.70
15554;DHT22;7878;44.632;10.942;2023-04-24T03:35:44;17.90;89.40
15554;DHT22;7878;44.632;10.942;2023-04-24T03:38:10;17.90;89.50
15554;DHT22;7878;44.632;10.942;2023-04-24T03:40:36;17.90;89.70
15554;DHT22;7878;44.632;10.942;2023-04-24T03:43:01;17.90;90.20
15554;DHT22;7878;44.632;10.942;2023-04-24T03:45:27;17.90;90.10
15554;DHT22;7878;44.632;10.942;2023-04-24T03:47:53;17.90;90.50
15554;DHT22;7878;44.632;10.942;2023-04-24T03:50:19;17.90;90.80
15554;DHT22;7878;44.632;10.942;2023-04-24T03:52:45;17.80;90.70
15554;DHT22;7878;44.632;10.942;2023-04-24T03:55:11;17.80;91.00
15554;DHT22;7878;44.632;10.942;2023-04-24T03:57:39;17.80;90.70
15554;DHT22;7878;44.632;10.942;2023-04-24T04:00:05;17.90;90.90
15554;DHT22;7878;44.632;10.942;2023-04-24T04:02:31;17.90;90.70
15554;DHT22;7878;44.632;10.942;2023-04-24T04:04:57;17.90;90.90
15554;DHT22;7878;44.632;10.942;2023-04-24T04:07:22;17.90;91.20
15554;DHT22;7878;44.632;10.942;2023-04-24T04:09:48;17.90;91.10
15554;DHT22;7878;44.632;10.942;2023-04-24T04:12:14;17.90;91.00
15554;DHT22;7878;44.632;10.942;2023-04-24T04:14:39;17.90;91.30
15554;DHT22;7878;44.632;10.942;2023-04-24T04:17:05;17.80;91.30
15554;DHT22;7878;44.632;10.942;2023-04-24T04:19:31;17.80;91.30
15554;DHT22;7878;44.632;10.942;2023-04-24T04:21:56;17.80;92.00
15554;DHT22;7878;44.632;10.942;2023-04-24T04:24:22;17.80;91.90
15554;DHT22;7878;44.632;10.942;2023-04-24T04:26:49;17.80;91.60
15554;DHT22;7878;44.632;10.942;2023-04-24T04:29:17;17.80;91.50
15554;DHT22;7878;44.632;10.942;2023-04-24T04:31:44;17.80;91.60
15554;DHT22;7878;44.632;10.942;2023-04-24T04:34:10;17.80;92.10
15554;DHT22;7878;44.632;10.942;2023-04-24T04:36:37;17.80;91.90
15554;DHT22;7878;44.632;10.942;2023-04-24T04:39:06;17.70;92.40
15554;DHT22;7878;44.632;10.942;2023-04-24T04:41:32;17.70;92.00
15554;DHT22;7878;44.632;10.942;2023-04-24T04:44:00;17.70;92.50
15554;DHT22;7878;44.632;10.942;2023-04-24T04:46:27;17.70;92.10
15554;DHT22;7878;44.632;10.942;2023-04-24T04:48:53;17.70;92.80
15554;DHT22;7878;44.632;10.942;2023-04-24T04:51:19;17.60;92.40
15554;DHT22;7878;44.632;10.942;2023-04-24T04:53:45;17.60;92.20
15554;DHT22;7878;44.632;10.942;2023-04-24T04:56:11;17.60;92.10
15554;DHT22;7878;44.632;10.942;2023-04-24T04:58:37;17.60;92.90
15554;DHT22;7878;44.632;10.942;2023-04-24T05:01:03;17.70;92.80
15554;DHT22;7878;44.632;10.942;2023-04-24T05:03:28;17.70;92.60
15554;DHT22;7878;44.632;10.942;2023-04-24T05:05:54;17.60;92.40
15554;DHT22;7878;44.632;10.942;2023-04-24T05:08:20;17.60;92.70
15554;DHT22;7878;44.632;10.942;2023-04-24T05:10:45;17.60;92.60
15554;DHT22;7878;44.632;10.942;2023-04-24T05:13:11;17.60;92.90
15554;DHT22;7878;44.632;10.942;2023-04-24T05:15:37;17.50;93.10
15554;DHT22;7878;44.632;10.942;2023-04-24T05:18:02;17.50;92.90
15554;DHT22;7878;44.632;10.942;2023-04-24T05:20:28;17.60;92.90
15554;DHT22;7878;44.632;10.942;2023-04-24T05:22:54;17.60;93.00
15554;DHT22;7878;44.632;10.942;2023-04-24T05:25:19;17.60;93.10
15554;DHT22;7878;44.632;10.942;2023-04-24T05:27:45;17.50;93.30
15554;DHT22;7878;44.632;10.942;2023-04-24T05:30:12;17.50;93.10
15554;DHT22;7878;44.632;10.942;2023-04-24T05:32:38;17.60;93.00
15554;DHT22;7878;44.632;10.942;2023-04-24T05:35:04;17.50;93.20
15554;DHT22;7878;44.632;10.942;2023-04-24T05:37:29;17.50;93.10
15554;DHT22;7878;44.632;10.942;2023-04-24T05:39:55;17.50;93.10
15554;DHT22;7878;44.632;10.942;2023-04-24T05:42:20;17.60;93.00
15554;DHT22;7878;44.632;10.942;2023-04-24T05:44:46;17.60;92.70
15554;DHT22;7878;44.632;10.942;2023-04-24T05:47:12;17.60;93.30
15554;DHT22;7878;44.632;10.942;2023-04-24T05:49:37;17.60;93.40
15554;DHT22;7878;44.632;10.942;2023-04-24T05:52:03;17.60;93.00
15554;DHT22;7878;44.632;10.942;2023-04-24T05:54:30;17.60;92.80
15554;DHT22;7878;44.632;10.942;2023-04-24T05:56:56;17.70;92.60
15554;DHT22;7878;44.632;10.942;2023-04-24T05:59:22;17.70;92.50
15554;DHT22;7878;44.632;10.942;2023-04-24T06:01:48;17.70;92.70
15554;DHT22;7878;44.632;10.942;2023-04-24T06:04:13;17.70;93.00
15554;DHT22;7878;44.632;10.942;2023-04-24T06:06:39;17.70;93.00
15554;DHT22;7878;44.632;10.942;2023-04-24T06:09:05;17.60;92.80
15554;DHT22;7878;44.632;10.942;2023-04-24T06:11:31;17.70;93.30
15554;DHT22;7878;44.632;10.942;2023-04-24T06:13:57;17.70;92.90
15554;DHT22;7878;44.632;10.942;2023-04-24T06:16:22;17.70;93.10
15554;DHT22;7878;44.632;10.942;2023-04-24T06:18:48;17.70;92.90
15554;DHT22;7878;44.632;10.942;2023-04-24T06:21:15;17.70;92.90
15554;DHT22;7878;44.632;10.942;2023-04-24T06:23:41;17.70;93.00
15554;DHT22;7878;44.632;10.942;2023-04-24T06:26:07;17.70;92.90
15554;DHT22;7878;44.632;10.942;2023-04-24T06:28:32;17.80;93.10
15554;DHT22;7878;44.632;10.942;2023-04-24T06:30:58;17.80;93.10
15554;DHT22;7878;44.632;10.942;2023-04-24T06:33:24;17.80;93.30
15554;DHT22;7878;44.632;10.942;2023-04-24T06:35:49;17.70;93.20
15554;DHT22;7878;44.632;10.942;2023-04-24T06:38:15;17.80;92.90
15554;DHT22;7878;44.632;10.942;2023-04-24T06:40:41;17.80;93.10
15554;DHT22;7878;44.632;10.942;2023-04-24T06:43:07;17.80;93.30
15554;DHT22;7878;44.632;10.942;2023-04-24T06:45:32;17.70;93.40
15554;DHT22;7878;44.632;10.942;2023-04-24T06:47:58;17.70;93.00
15554;DHT22;7878;44.632;10.942;2023-04-24T06:50:24;17.70;93.10
15554;DHT22;7878;44.632;10.942;2023-04-24T06:52:50;17.70;93.60
15554;DHT22;7878;44.632;10.942;2023-04-24T06:55:16;17.70;93.40
15554;DHT22;7878;44.632;10.942;2023-04-24T06:57:42;17.70;93.70
15554;DHT22;7878;44.632;10.942;2023-04-24T07:00:08;17.70;93.50
15554;DHT22;7878;44.632;10.942;2023-04-24T07:02:34;17.70;93.40
15554;DHT22;7878;44.632;10.942;2023-04-24T07:05:00;17.80;93.10
15554;DHT22;7878;44.632;10.942;2023-04-24T07:07:26;17.90;93.10
15554;DHT22;7878;44.632;10.942;2023-04-24T07:09:53;18.00;93.00
15554;DHT22;7878;44.632;10.942;2023-04-24T07:12:19;18.10;93.00
15554;DHT22;7878;44.632;10.942;2023-04-24T07:14:47;18.20;92.90
15554;DHT22;7878;44.632;10.942;2023-04-24T07:17:12;18.30;93.10
15554;DHT22;7878;44.632;10.942;2023-04-24T07:19:38;18.40;93.20
15554;DHT22;7878;44.632;10.942;2023-04-24T07:22:04;18.50;92.80
15554;DHT22;7878;44.632;10.942;2023-04-24T07:24:30;18.60;92.70
15554;DHT22;7878;44.632;10.942;2023-04-24T07:26:58;18.70;92.80
15554;DHT22;7878;44.632;10.942;2023-04-24T07:29:23;18.80;92.80
15554;DHT22;7878;44.632;10.942;2023-04-24T07:31:50;18.90;92.40
15554;DHT22;7878;44.632;10.942;2023-04-24T07:34:15;19.10;92.30
15554;DHT22;7878;44.632;10.942;2023-04-24T07:36:41;19.30;92.50
15554;DHT22;7878;44.632;10.942;2023-04-24T07:39:07;19.50;92.00
15554;DHT22;7878;44.632;10.942;2023-04-24T07:41:33;19.90;91.60
15554;DHT22;7878;44.632;10.942;2023-04-24T07:43:59;20.30;91.40
15554;DHT22;7878;44.632;10.942;2023-04-24T07:46:25;20.50;91.10
15554;DHT22;7878;44.632;10.942;2023-04-24T07:48:51;20.60;91.50
15554;DHT22;7878;44.632;10.942;2023-04-24T07:51:16;20.60;91.40
15554;DHT22;7878;44.632;10.942;2023-04-24T07:53:43;20.70;91.50
15554;DHT22;7878;44.632;10.942;2023-04-24T07:56:08;20.70;91.20
15554;DHT22;7878;44.632;10.942;2023-04-24T07:58:35;20.70;91.30
15554;DHT22;7878;44.632;10.942;2023-04-24T08:01:00;20.70;91.40
15554;DHT22;7878;44.632;10.942;2023-04-24T08:03:26;20.80;91.50
15554;DHT22;7878;44.632;10.942;2023-04-24T08:05:52;20.80;91.00
15554;DHT22;7878;44.632;10.942;2023-04-24T08:08:19;20.90;90.80
15554;DHT22;7878;44.632;10.942;2023-04-24T08:10:45;21.00;90.40
15554;DHT22;7878;44.632;10.942;2023-04-24T08:13:11;21.00;90.30
15554;DHT22;7878;44.632;10.942;2023-04-24T08:15:37;20.90;90.30
15554;DHT22;7878;44.632;10.942;2023-04-24T08:18:02;20.70;90.00
15554;DHT22;7878;44.632;10.942;2023-04-24T08:20:28;20.60;90.00
15554;DHT22;7878;44.632;10.942;2023-04-24T08:22:54;20.40;90.00
15554;DHT22;7878;44.632;10.942;2023-04-24T08:25:20;20.30;90.10
15554;DHT22;7878;44.632;10.942;2023-04-24T08:27:48;20.30;90.40
15554;DHT22;7878;44.632;10.942;2023-04-24T08:30:14;20.40;90.40
15554;DHT22;7878;44.632;10.942;2023-04-24T08:32:40;20.60;90.00
15554;DHT22;7878;44.632;10.942;2023-04-24T08:35:06;20.70;89.70
15554;DHT22;7878;44.632;10.942;2023-04-24T08:37:34;20.70;89.10
15554;DHT22;7878;44.632;10.942;2023-04-24T08:39:59;21.00;89.10
15554;DHT22;7878;44.632;10.942;2023-04-24T08:42:28;21.30;88.70
15554;DHT22;7878;44.632;10.942;2023-04-24T08:44:54;21.30;87.80
15554;DHT22;7878;44.632;10.942;2023-04-24T08:47:20;21.20;87.10
15554;DHT22;7878;44.632;10.942;2023-04-24T08:49:48;21.20;87.30
15554;DHT22;7878;44.632;10.942;2023-04-24T08:52:15;21.00;86.50
15554;DHT22;7878;44.632;10.942;2023-04-24T08:54:42;20.90;86.90
15554;DHT22;7878;44.632;10.942;2023-04-24T08:57:11;21.00;87.40
15554;DHT22;7878;44.632;10.942;2023-04-24T08:59:38;21.20;87.40
15554;DHT22;7878;44.632;10.942;2023-04-24T09:02:04;21.20;86.00
15554;DHT22;7878;44.632;10.942;2023-04-24T09:04:30;21.10;86.50
15554;DHT22;7878;44.632;10.942;2023-04-24T09:06:58;21.10;86.90
15554;DHT22;7878;44.632;10.942;2023-04-24T09:09:25;21.00;87.20
15554;DHT22;7878;44.632;10.942;2023-04-24T09:11:52;20.90;87.30
15554;DHT22;7878;44.632;10.942;2023-04-24T09:14:20;20.90;87.40
15554;DHT22;7878;44.632;10.942;2023-04-24T09:16:46;21.00;87.80
15554;DHT22;7878;44.632;10.942;2023-04-24T09:19:12;21.20;87.70
15554;DHT22;7878;44.632;10.942;2023-04-24T09:21:38;21.30;87.30
15554;DHT22;7878;44.632;10.942;2023-04-24T09:24:07;21.30;87.20
15554;DHT22;7878;44.632;10.942;2023-04-24T09:26:35;21.20;87.30
15554;DHT22;7878;44.632;10.942;2023-04-24T09:29:03;21.20;87.70
15554;DHT22;7878;44.632;10.942;2023-04-24T09:31:29;21.20;86.80
15554;DHT22;7878;44.632;10.942;2023-04-24T09:34:03;21.30;86.60
15554;DHT22;7878;44.632;10.942;2023-04-24T09:36:41;21.40;86.60
15554;DHT22;7878;44.632;10.942;2023-04-24T09:39:12;21.50;86.90
15554;DHT22;7878;44.632;10.942;2023-04-24T09:41:49;21.40;86.70
15554;DHT22;7878;44.632;10.942;2023-04-24T09:44:19;21.30;86.70
15554;DHT22;7878;44.632;10.942;2023-04-24T09:46:50;21.20;87.30
15554;DHT22;7878;44.632;10.942;2023-04-24T09:49:24;21.10;87.00
15554;DHT22;7878;44.632;10.942;2023-04-24T09:51:50;21.00;87.10
15554;DHT22;7878;44.632;10.942;2023-04-24T09:54:18;21.00;86.90
15554;DHT22;7878;44.632;10.942;2023-04-24T09:56:46;20.90;87.10
15554;DHT22;7878;44.632;10.942;2023-04-24T09:59:14;20.90;87.40
15554;DHT22;7878;44.632;10.942;2023-04-24T10:01:40;20.90;87.50
15554;DHT22;7878;44.632;10.942;2023-04-24T10:04:25;20.90;87.50
15554;DHT22;7878;44.632;10.942;2023-04-24T10:06:52;21.00;87.70
15554;DHT22;7878;44.632;10.942;2023-04-24T10:09:20;21.10;87.90
15554;DHT22;7878;44.632;10.942;2023-04-24T10:11:48;21.30;87.30
15554;DHT22;7878;44.632;10.942;2023-04-24T10:14:16;21.20;86.10
15554;DHT22;7878;44.632;10.942;2023-04-24T10:16:42;21.20;86.80
15554;DHT22;7878;44.632;10.942;2023-04-24T10:19:09;21.30;87.00
15554;DHT22;7878;44.632;10.942;2023-04-24T10:21:35;21.40;86.60
15554;DHT22;7878;44.632;10.942;2023-04-24T10:24:04;21.40;86.60
15554;DHT22;7878;44.632;10.942;2023-04-24T10:26:32;21.60;86.40
15554;DHT22;7878;44.632;10.942;2023-04-24T10:28:58;21.60;86.10
15554;DHT22;7878;44.632;10.942;2023-04-24T10:31:24;21.70;86.40
15554;DHT22;7878;44.632;10.942;2023-04-24T10:33:51;21.80;86.50
15554;DHT22;7878;44.632;10.942;2023-04-24T10:36:19;21.90;86.60
15554;DHT22;7878;44.632;10.942;2023-04-24T10:38:47;22.00;86.20
15554;DHT22;7878;44.632;10.942;2023-04-24T10:41:14;22.20;86.50
15554;DHT22;7878;44.632;10.942;2023-04-24T10:43:45;22.30;85.70
15554;DHT22;7878;44.632;10.942;2023-04-24T10:46:19;22.30;85.20
15554;DHT22;7878;44.632;10.942;2023-04-24T10:48:52;22.50;85.00
15554;DHT22;7878;44.632;10.942;2023-04-24T10:51:24;22.70;83.70
15554;DHT22;7878;44.632;10.942;2023-04-24T11:00:20;23.50;81.70
15554;DHT22;7878;44.632;10.942;2023-04-24T11:02:47;23.60;81.00
15554;DHT22;7878;44.632;10.942;2023-04-24T11:05:19;23.60;82.70
15554;DHT22;7878;44.632;10.942;2023-04-24T11:08:14;23.70;82.80
15554;DHT22;7878;44.632;10.942;2023-04-24T11:14:00;23.90;79.20
15554;DHT22;7878;44.632;10.942;2023-04-24T11:16:33;24.20;81.90
15554;DHT22;7878;44.632;10.942;2023-04-24T11:21:48;24.60;80.60
15554;DHT22;7878;44.632;10.942;2023-04-24T11:24:30;24.80;79.30
15554;DHT22;7878;44.632;10.942;2023-04-24T11:26:57;25.20;79.60
15554;DHT22;7878;44.632;10.942;2023-04-24T11:29:44;25.30;80.30
15554;DHT22;7878;44.632;10.942;2023-04-24T11:32:26;26.00;77.90
15554;DHT22;7878;44.632;10.942;2023-04-24T11:35:15;27.10;76.20
15554;DHT22;7878;44.632;10.942;2023-04-24T11:40:11;26.90;75.30
15554;DHT22;7878;44.632;10.942;2023-04-24T11:42:39;26.20;74.30
15554;DHT22;7878;44.632;10.942;2023-04-24T11:45:09;25.70;76.00
15554;DHT22;7878;44.632;10.942;2023-04-24T11:47:36;25.30;76.40
15554;DHT22;7878;44.632;10.942;2023-04-24T11:50:02;25.00;77.50
15554;DHT22;7878;44.632;10.942;2023-04-24T11:52:30;24.80;77.70
15554;DHT22;7878;44.632;10.942;2023-04-24T11:54:56;24.70;78.30
15554;DHT22;7878;44.632;10.942;2023-04-24T11:57:23;24.70;78.20
15554;DHT22;7878;44.632;10.942;2023-04-24T11:59:49;24.50;78.10
15554;DHT22;7878;44.632;10.942;2023-04-24T12:02:26;24.40;77.50
15554;DHT22;7878;44.632;10.942;2023-04-24T12:04:53;24.40;77.00
15554;DHT22;7878;44.632;10.942;2023-04-24T12:07:19;24.40;78.80
15554;DHT22;7878;44.632;10.942;2023-04-24T12:12:20;24.40;78.20
15554;DHT22;7878;44.632;10.942;2023-04-24T12:14:52;24.40;78.00
15554;DHT22;7878;44.632;10.942;2023-04-24T12:17:24;24.30;76.80
15554;DHT22;7878;44.632;10.942;2023-04-24T12:19:51;24.30;76.20
15554;DHT22;7878;44.632;10.942;2023-04-24T12:22:16;24.20;78.10
15554;DHT22;7878;44.632;10.942;2023-04-24T12:27:23;24.30;73.60
15554;DHT22;7878;44.632;10.942;2023-04-24T12:29:56;24.30;77.20
15554;DHT22;7878;44.632;10.942;2023-04-24T12:32:22;24.20;75.10
15554;DHT22;7878;44.632;10.942;2023-04-24T12:34:49;24.20;76.00
15554;DHT22;7878;44.632;10.942;2023-04-24T12:37:16;24.10;76.10
15554;DHT22;7878;44.632;10.942;2023-04-24T12:40:10;24.10;75.90
15554;DHT22;7878;44.632;10.942;2023-04-24T12:42:42;24.10;73.50
15554;DHT22;7878;44.632;10.942;2023-04-24T12:45:08;24.20;74.40
15554;DHT22;7878;44.632;10.942;2023-04-24T12:47:34;24.20;75.80
15554;DHT22;7878;44.632;10.942;2023-04-24T12:50:01;24.10;76.90
15554;DHT22;7878;44.632;10.942;2023-04-24T12:52:29;24.10;77.00
15554;DHT22;7878;44.632;10.942;2023-04-24T12:54:59;24.10;75.60
15554;DHT22;7878;44.632;10.942;2023-04-24T12:57:26;24.10;75.00
15554;DHT22;7878;44.632;10.942;2023-04-24T12:59:56;24.10;74.90
15554;DHT22;7878;44.632;10.942;2023-04-24T13:02:25;24.10;74.10
15554;DHT22;7878;44.632;10.942;2023-04-24T13:04:52;24.10;73.50
15554;DHT22;7878;44.632;10.942;2023-04-24T13:07:18;24.10;73.40
15554;DHT22;7878;44.632;10.942;2023-04-24T13:09:44;24.10;72.70
15554;DHT22;7878;44.632;10.942;2023-04-24T13:12:11;24.00;73.50
15554;DHT22;7878;44.632;10.942;2023-04-24T13:14:37;23.90;73.70
15554;DHT22;7878;44.632;10.942;2023-04-24T13:17:03;23.90;73.40
15554;DHT22;7878;44.632;10.942;2023-04-24T13:19:34;23.90;71.90
15554;DHT22;7878;44.632;10.942;2023-04-24T13:22:01;24.00;73.00
15554;DHT22;7878;44.632;10.942;2023-04-24T13:24:26;24.00;72.90
15554;DHT22;7878;44.632;10.942;2023-04-24T13:26:52;24.00;72.40
15554;DHT22;7878;44.632;10.942;2023-04-24T13:29:18;24.00;72.00
15554;DHT22;7878;44.632;10.942;2023-04-24T13:31:44;24.10;72.90
15554;DHT22;7878;44.632;10.942;2023-04-24T13:34:10;24.10;72.80
15554;DHT22;7878;44.632;10.942;2023-04-24T13:36:35;24.10;72.00
15554;DHT22;7878;44.632;10.942;2023-04-24T13:39:02;24.10;72.20
15554;DHT22;7878;44.632;10.942;2023-04-24T13:41:29;24.10;72.80
15554;DHT22;7878;44.632;10.942;2023-04-24T13:43:55;24.00;71.10
15554;DHT22;7878;44.632;10.942;2023-04-24T13:46:21;24.00;72.60
15554;DHT22;7878;44.632;10.942;2023-04-24T13:48:47;24.10;72.40
15554;DHT22;7878;44.632;10.942;2023-04-24T13:51:13;24.10;72.70
15554;DHT22;7878;44.632;10.942;2023-04-24T13:53:39;24.10;72.20
15554;DHT22;7878;44.632;10.942;2023-04-24T13:56:05;24.10;73.10
15554;DHT22;7878;44.632;10.942;2023-04-24T13:58:35;24.10;73.00
15554;DHT22;7878;44.632;10.942;2023-04-24T14:01:02;24.10;72.30
15554;DHT22;7878;44.632;10.942;2023-04-24T14:03:28;24.10;73.00
15554;DHT22;7878;44.632;10.942;2023-04-24T14:05:54;24.10;73.40
15554;DHT22;7878;44.632;10.942;2023-04-24T14:08:20;24.00;73.10
15554;DHT22;7878;44.632;10.942;2023-04-24T14:10:46;24.00;73.30
15554;DHT22;7878;44.632;10.942;2023-04-24T14:13:12;24.00;72.50
15554;DHT22;7878;44.632;10.942;2023-04-24T14:15:37;24.00;72.70
15554;DHT22;7878;44.632;10.942;2023-04-24T14:18:03;24.00;73.30
15554;DHT22;7878;44.632;10.942;2023-04-24T14:20:29;24.00;73.60
15554;DHT22;7878;44.632;10.942;2023-04-24T14:22:54;24.00;72.90
15554;DHT22;7878;44.632;10.942;2023-04-24T14:25:20;24.00;73.20
15554;DHT22;7878;44.632;10.942;2023-04-24T14:27:47;23.90;72.50
15554;DHT22;7878;44.632;10.942;2023-04-24T14:30:13;23.90;73.20
15554;DHT22;7878;44.632;10.942;2023-04-24T14:32:40;23.90;73.00
15554;DHT22;7878;44.632;10.942;2023-04-24T14:35:06;23.90;73.60
15554;DHT22;7878;44.632;10.942;2023-04-24T14:37:32;24.00;73.60
15554;DHT22;7878;44.632;10.942;2023-04-24T14:39:58;24.10;73.50
15554;DHT22;7878;44.632;10.942;2023-04-24T14:42:24;24.10;74.00
15554;DHT22;7878;44.632;10.942;2023-04-24T14:44:49;24.10;73.10
15554;DHT22;7878;44.632;10.942;2023-04-24T14:47:16;24.10;74.10
15554;DHT22;7878;44.632;10.942;2023-04-24T14:49:43;24.10;74.20
15554;DHT22;7878;44.632;10.942;2023-04-24T14:52:09;24.10;74.10
15554;DHT22;7878;44.632;10.942;2023-04-24T14:54:35;24.10;73.20
15554;DHT22;7878;44.632;10.942;2023-04-24T14:57:01;24.00;73.30
15554;DHT22;7878;44.632;10.942;2023-04-24T14:59:30;23.90;73.60
15554;DHT22;7878;44.632;10.942;2023-04-24T15:01:57;23.90;71.80
15554;DHT22;7878;44.632;10.942;2023-04-24T15:04:26;23.90;72.90
15554;DHT22;7878;44.632;10.942;2023-04-24T15:06:52;23.90;73.70
15554;DHT22;7878;44.632;10.942;2023-04-24T15:09:24;23.90;73.50
15554;DHT22;7878;44.632;10.942;2023-04-24T15:11:51;23.80;73.80
15554;DHT22;7878;44.632;10.942;2023-04-24T15:14:17;23.80;73.80
15554;DHT22;7878;44.632;10.942;2023-04-24T15:16:43;23.80;74.00
15554;DHT22;7878;44.632;10.942;2023-04-24T15:19:09;23.80;73.80
15554;DHT22;7878;44.632;10.942;2023-04-24T15:21:36;23.80;73.40
15554;DHT22;7878;44.632;10.942;2023-04-24T15:24:02;23.80;72.00
15554;DHT22;7878;44.632;10.942;2023-04-24T15:26:28;23.70;70.10
15554;DHT22;7878;44.632;10.942;2023-04-24T15:28:53;23.70;70.20
15554;DHT22;7878;44.632;10.942;2023-04-24T15:31:19;23.70;67.00
15554;DHT22;7878;44.632;10.942;2023-04-24T15:33:45;23.70;65.60
15554;DHT22;7878;44.632;10.942;2023-04-24T15:36:11;23.70;62.90
15554;DHT22;7878;44.632;10.942;2023-04-24T15:38:37;23.70;63.80
15554;DHT22;7878;44.632;10.942;2023-04-24T15:41:03;23.60;60.10
15554;DHT22;7878;44.632;10.942;2023-04-24T15:43:28;23.60;64.00
15554;DHT22;7878;44.632;10.942;2023-04-24T15:45:59;23.50;63.90
15554;DHT22;7878;44.632;10.942;2023-04-24T15:48:25;23.50;64.50